TimePDT,TemperatureF,Dew PointF,Humidity,Sea Level PressureIn,VisibilityMPH,Wind Direction,Wind SpeedMPH,Gust SpeedMPH,PrecipitationIn,Events,Conditions,WindDirDegrees,DateUTC
12:54 AM,46.0,44.1,93,30.03,10.0,SSE,5.8,-,N/A,,Clear,150,2013-03-16 07:54:00
1:54 AM,48.0,45.0,89,30.03,10.0,SSW,3.5,-,N/A,,Clear,210,2013-03-16 08:54:00
2:54 AM,46.0,43.0,89,30.05,10.0,South,3.5,-,N/A,,Clear,190,2013-03-16 09:54:00
3:54 AM,44.1,42.1,93,30.04,10.0,SE,3.5,-,N/A,,Clear,130,2013-03-16 10:54:00
4:54 AM,46.0,43.0,89,30.04,10.0,South,3.5,-,N/A,,Clear,170,2013-03-16 11:54:00
5:32 AM,44.6,42.8,93,30.06,10.0,Calm,Calm,-,N/A,,Partly Cloudy,0,2013-03-16 12:32:00
5:54 AM,46.0,45.0,96,30.03,10.0,Calm,Calm,-,N/A,,Mostly Cloudy,0,2013-03-16 12:54:00
6:54 AM,46.0,44.1,93,30.04,4.0,NW,4.6,-,N/A,,Overcast,320,2013-03-16 13:54:00
7:11 AM,46.4,44.6,93,30.07,1.8,Calm,Calm,-,N/A,,Overcast,0,2013-03-16 14:11:00
7:24 AM,48.2,46.4,93,30.08,2.0,Calm,Calm,-,N/A,,Overcast,0,2013-03-16 14:24:00
7:32 AM,48.2,46.4,93,30.08,0.8,Calm,Calm,-,N/A,,Overcast,0,2013-03-16 14:32:00
7:40 AM,48.2,46.4,93,30.08,2.0,Calm,Calm,-,N/A,,Overcast,0,2013-03-16 14:40:00
7:54 AM,48.0,46.9,96,30.06,0.8,Calm,Calm,-,N/A,Fog,Fog,0,2013-03-16 14:54:00
8:37 AM,50.0,48.2,94,30.09,0.5,Calm,Calm,-,N/A,Fog,Fog,0,2013-03-16 15:37:00
8:54 AM,50.0,48.9,96,30.08,0.2,Calm,Calm,-,N/A,Fog,Fog,0,2013-03-16 15:54:00
9:21 AM,50.0,48.2,94,30.10,1.0,Calm,Calm,-,N/A,,Overcast,0,2013-03-16 16:21:00
9:30 AM,50.0,50.0,100,30.09,3.0,Calm,Calm,-,N/A,,Overcast,0,2013-03-16 16:30:00
9:54 AM,52.0,48.9,89,30.07,3.0,Calm,Calm,-,N/A,,Mostly Cloudy,0,2013-03-16 16:54:00
10:15 AM,51.8,48.2,88,30.10,8.0,West,3.5,-,N/A,,Scattered Clouds,270,2013-03-16 17:15:00
10:54 AM,55.9,50.0,80,30.09,10.0,WSW,4.6,-,N/A,,Partly Cloudy,250,2013-03-16 17:54:00
11:54 AM,60.1,52.0,75,30.08,10.0,South,6.9,-,N/A,,Clear,190,2013-03-16 18:54:00
12:54 PM,63.0,53.1,70,30.05,10.0,SSW,6.9,-,N/A,,Clear,200,2013-03-16 19:54:00
1:54 PM,66.0,53.1,63,30.03,10.0,SSW,9.2,-,N/A,,Clear,210,2013-03-16 20:54:00
2:54 PM,66.9,50.0,54,30.01,10.0,SSW,11.5,-,N/A,,Clear,210,2013-03-16 21:54:00
3:54 PM,70.0,51.1,51,30.00,10.0,SW,12.7,-,N/A,,Clear,230,2013-03-16 22:54:00
4:54 PM,70.0,48.0,46,29.98,10.0,West,13.8,-,N/A,,Clear,260,2013-03-16 23:54:00
5:54 PM,68.0,48.0,49,29.98,10.0,West,11.5,21.9,N/A,,Clear,260,2013-03-17 00:54:00
6:54 PM,63.0,46.9,56,29.99,10.0,West,12.7,-,N/A,,Clear,280,2013-03-17 01:54:00
7:54 PM,57.9,45.0,62,29.99,10.0,West,12.7,-,N/A,,Clear,270,2013-03-17 02:54:00
8:54 PM,55.9,45.0,67,30.01,10.0,West,15.0,-,N/A,,Clear,260,2013-03-17 03:54:00
9:54 PM,55.9,44.1,64,30.04,10.0,West,10.4,-,N/A,,Clear,260,2013-03-17 04:54:00
10:54 PM,55.0,44.1,67,30.06,10.0,WNW,10.4,-,N/A,,Clear,290,2013-03-17 05:54:00
11:54 PM,51.1,43.0,74,30.06,10.0,NW,8.1,-,N/A,,Clear,310,2013-03-17 06:54:00